Bookmark and Share
Track history (hours):
 

Silver Bergen

Last reported at 2014-Apr-24 15:31 UTC. Time now 2014-Apr-25 06:14 UTC.
Position N 58°29' E 005°15'.

Length 97 m; draft 4.9 m.

Type: Cargo ship. MMSI: 257951000.

NotesDate/timePositionNaut miles runAvg speedWind from/ knotsBaromVisibWave heightAir tempDewpointWater temp
2014-Apr-24 15:31N 58°29' E 005°15'1515.3
2014-Apr-24 14:33N 58°19' E 005°37'1615.5
2014-Apr-24 13:33N 58°09' E 005°59'1615.5
2014-Apr-24 12:33N 58°02' E 006°25'12315.3
2014-Apr-24 04:30N 57°50' E 010°16'1515.2
2014-Apr-24 03:32N 57°48' E 010°44'1515.2
2014-Apr-24 02:33N 57°39' E 011°05'1515.2
2014-Apr-24 01:33N 57°29' E 011°26'1515.2
2014-Apr-24 00:34N 57°15' E 011°36'1515.1
2014-Apr-23 23:34N 57°01' E 011°48'1515.0
2014-Apr-23 22:33N 56°47' E 011°59'1915.4
2014-Apr-23 21:18N 56°30' E 012°14'1316.7
2014-Apr-23 20:34N 56°18' E 012°23'1717.4
2014-Apr-23 19:34N 56°03' E 012°39'1515.1
2014-Apr-23 18:33N 55°48' E 012°43'1514.9
2014-Apr-23 17:33N 55°34' E 012°42'1414.3
2014-Apr-23 16:34N 55°19' E 012°40'1414.5
2014-Apr-23 15:34N 55°15' E 013°05'1515.2
2014-Apr-23 14:34N 55°14' E 013°31'1615.9
2014-Apr-23 13:33N 55°14' E 013°59'1414.6
2014-Apr-23 12:34N 55°19' E 014°23'1515.0
2014-Apr-23 11:33N 55°29' E 014°42'1515.4
2014-Apr-23 10:33N 55°37' E 015°05'1715.5
2014-Apr-23 09:27N 55°46' E 015°31'1915.5
2014-Apr-23 08:13N 55°55' E 016°01'1015.6
2014-Apr-23 07:34N 56°00' E 016°17'39914.7
2014-Apr-22 04:21N 59°59' E 026°20'1214.7
2014-Apr-22 03:33N 60°01' E 026°43'  
2014-Apr-17 09:14N 56°01' E 016°39'2815.1
2014-Apr-17 07:23N 55°48' E 015°56'1315.2
2014-Apr-17 06:33N 55°42' E 015°36'1515.0
2014-Apr-17 05:33N 55°34' E 015°13'1514.8
2014-Apr-17 04:33N 55°27' E 014°51'1514.7
2014-Apr-17 03:33N 55°17' E 014°30'1414.2
2014-Apr-17 02:33N 55°10' E 014°09'1514.5
2014-Apr-17 01:33N 55°11' E 013°44'1514.7
2014-Apr-17 00:33N 55°13' E 013°18'1514.9
2014-Apr-16 23:33N 55°15' E 012°52'1211.6
2014-Apr-16 22:33N 55°24' E 012°40'1111.3
2014-Apr-16 21:33N 55°36' E 012°42'8 8.4
2014-Apr-16 20:33N 55°44' E 012°41'1312.6
2014-Apr-16 19:34N 55°56' E 012°38'1212.5
2014-Apr-16 18:33N 56°08' E 012°29'1514.6
2014-Apr-16 17:33N 56°19' E 012°12'1615.0
2014-Apr-16 16:30N 56°33' E 011°57'1414.6
2014-Apr-16 15:34N 56°46' E 011°50'1414.5
2014-Apr-16 14:34N 56°60' E 011°42'1414.5
2014-Apr-16 13:34N 57°13' E 011°32'1514.5
2014-Apr-16 12:34N 57°27' E 011°24'1414.4
2014-Apr-16 11:34N 57°37' E 011°04'1514.6
2014-Apr-16 10:34N 57°47' E 010°44'1515.0
2014-Apr-16 09:33N 57°47' E 010°16'5315.4
2014-Apr-16 06:07N 57°48' E 008°36'8214.6
2014-Apr-16 00:28N 58°05' E 006°04'43113.9
2014-Apr-14 17:34N 62°02' W 005°56'1414.5
2014-Apr-14 16:34N 62°07' W 006°25'1111.0
2014-Apr-14 15:34N 62°14' W 006°44'  

Dump ship's entire track history

sailing weather and tide predictions

Silver Bergen — LAHO6 — position and weather